Time;durP1;ratioP1;P1;durP2;ratioP2;P2;SDS_P1;SDS_P2;PMS_P1;PMS_P2;Temp;Humidity;BMP_temperature;BMP_pressure;BME280_temperature;BME280_humidity;BME280_pressure;Samples;Min_cycle;Max_cycle;Signal;HPM_P1;HPM_P2
2023/04/14 00:00:40;;;;;;;11.95;2.63;;;;;;;4.88;70.49;101730.63;5049147;28;20234;-78
2023/04/14 00:03:09;;;;;;;15.27;2.35;;;;;;;4.90;70.32;101747.09;5040910;28;20390;-78
2023/04/14 00:05:36;;;;;;;13.00;3.65;;;;;;;4.90;70.64;101734.16;5052788;28;20041;-79
2023/04/14 00:08:03;;;;;;;17.65;3.22;;;;;;;4.85;70.54;101731.44;5043123;28;20063;-79
2023/04/14 00:10:30;;;;;;;8.05;1.33;;;;;;;4.89;70.40;101738.41;5048382;28;20056;-78
2023/04/14 00:12:57;;;;;;;14.50;2.50;;;;;;;4.90;70.39;101739.31;5041129;28;20494;-78
2023/04/14 00:15:24;;;;;;;14.05;2.72;;;;;;;4.84;70.51;101727.13;5046618;28;20049;-78
2023/04/14 00:17:51;;;;;;;12.57;2.63;;;;;;;4.87;70.61;101740.13;5044070;28;20489;-78
2023/04/14 00:20:20;;;;;;;15.90;2.75;;;;;;;4.87;70.90;101741.84;5056632;28;20057;-78
2023/04/14 00:22:47;;;;;;;15.88;2.83;;;;;;;4.83;70.80;101734.84;5041540;28;20128;-78
2023/04/14 00:25:14;;;;;;;14.32;2.40;;;;;;;4.84;70.66;101745.25;5043638;28;20049;-79
2023/04/14 00:27:41;;;;;;;7.53;2.03;;;;;;;4.79;70.77;101746.00;5041190;28;20095;-79
2023/04/14 00:30:09;;;;;;;11.93;2.85;;;;;;;4.82;71.13;101751.22;5041302;28;20049;-78
2023/04/14 00:32:36;;;;;;;7.40;2.30;;;;;;;4.83;70.85;101764.19;5049875;28;20056;-78
2023/04/14 00:35:03;;;;;;;11.23;2.60;;;;;;;4.82;71.06;101762.44;5054466;28;20053;-78
2023/04/14 00:37:31;;;;;;;8.35;2.60;;;;;;;4.78;71.17;101759.75;5041634;28;20515;-78
2023/04/14 00:39:58;;;;;;;8.35;1.60;;;;;;;4.82;70.77;101762.44;5036377;28;20049;-78
2023/04/14 00:42:26;;;;;;;12.50;2.60;;;;;;;4.83;70.74;101756.41;5041891;28;20128;-78
2023/04/14 00:44:53;;;;;;;15.70;2.70;;;;;;;4.80;70.85;101760.66;5040545;28;20049;-79
2023/04/14 00:47:21;;;;;;;10.23;2.30;;;;;;;4.87;70.94;101770.31;5045174;28;20053;-77
2023/04/14 00:49:48;;;;;;;7.63;1.98;;;;;;;4.63;70.60;101713.72;5040207;28;20053;-78
2023/04/14 00:52:15;;;;;;;8.48;2.25;;;;;;;4.86;71.03;101753.03;5052340;28;20093;-79
2023/04/14 00:54:44;;;;;;;7.47;2.08;;;;;;;4.89;70.40;101764.31;5047617;28;20055;-79
2023/04/14 00:57:11;;;;;;;11.32;2.58;;;;;;;4.90;70.59;101772.97;5046414;28;20063;-78
2023/04/14 00:59:38;;;;;;;13.02;2.20;;;;;;;4.85;70.62;101753.88;5045703;28;20405;-78
2023/04/14 01:02:05;;;;;;;8.10;2.75;;;;;;;4.83;70.66;101763.31;5045715;28;20607;-78
2023/04/14 01:04:32;;;;;;;8.57;1.90;;;;;;;4.88;71.09;101777.25;5043539;28;20413;-78
2023/04/14 01:07:00;;;;;;;13.55;3.33;;;;;;;4.87;70.70;101771.19;5050039;28;20476;-78
2023/04/14 01:09:27;;;;;;;6.57;2.88;;;;;;;4.85;70.25;101775.47;5040589;28;20049;-76
2023/04/14 01:12:01;;;;;;;13.48;2.78;;;;;;;4.84;70.66;101773.72;5040657;28;20194;-78
2023/04/14 01:14:35;;;;;;;10.43;2.97;;;;;;;4.82;70.50;101777.97;5044369;28;20064;-78
2023/04/14 01:17:09;;;;;;;9.93;2.20;;;;;;;4.81;70.56;101776.25;5053994;28;20293;-79
2023/04/14 01:19:53;;;;;;;9.23;2.08;;;;;;;4.81;70.53;101785.69;5044893;28;20467;-78
2023/04/14 01:22:22;;;;;;;11.43;1.80;;;;;;;4.77;70.53;101781.31;5041728;28;20076;-77
2023/04/14 01:25:10;;;;;;;14.40;2.10;;;;;;;4.70;70.56;101769.97;5048397;28;20055;-78
2023/04/14 01:27:51;;;;;;;13.85;3.33;;;;;;;4.73;70.57;101789.00;5038674;28;20050;-78
2023/04/14 01:30:35;;;;;;;7.50;2.08;;;;;;;4.74;70.49;101790.75;5035597;28;20055;-78
2023/04/14 01:33:08;;;;;;;8.40;1.85;;;;;;;4.72;70.55;101791.56;5040881;28;20046;-78
2023/04/14 01:35:38;;;;;;;7.45;2.42;;;;;;;4.70;70.66;101794.13;5048055;28;20474;-79
2023/04/14 01:38:10;;;;;;;16.77;2.22;;;;;;;4.69;70.66;101787.19;5036130;28;20508;-79
2023/04/14 01:40:41;;;;;;;11.50;2.63;;;;;;;4.70;70.55;101788.09;5050057;28;20053;-78
2023/04/14 01:43:11;;;;;;;11.95;1.45;;;;;;;4.73;70.51;101796.78;5041898;28;20464;-79
2023/04/14 01:45:43;;;;;;;9.13;1.90;;;;;;;4.74;70.49;101787.28;5045380;28;20096;-78
2023/04/14 01:48:12;;;;;;;10.80;2.38;;;;;;;4.71;70.46;101790.69;5049363;28;20041;-78
2023/04/14 01:50:42;;;;;;;8.18;2.70;;;;;;;4.72;70.38;101792.47;5038759;28;20583;-78
2023/04/14 01:53:11;;;;;;;13.77;2.97;;;;;;;4.70;70.43;101794.13;5042267;28;20531;-79
2023/04/14 01:55:40;;;;;;;15.30;2.00;;;;;;;4.69;70.32;101794.94;5045025;28;20041;-78
2023/04/14 01:58:09;;;;;;;5.80;1.67;;;;;;;4.64;70.73;101777.56;5045168;28;20128;-78
2023/04/14 02:00:38;;;;;;;11.38;2.30;;;;;;;4.67;70.57;101791.47;5049169;28;20072;-78
2023/04/14 02:03:06;;;;;;;16.40;2.17;;;;;;;4.67;70.73;101788.88;5045962;28;20049;-78
2023/04/14 02:05:36;;;;;;;15.57;2.15;;;;;;;4.67;70.32;101794.06;5034534;28;20390;-77
2023/04/14 02:08:07;;;;;;;19.63;2.45;;;;;;;4.65;70.47;101790.56;5034676;28;20077;-77
2023/04/14 02:10:38;;;;;;;8.73;1.83;;;;;;;4.64;70.46;101782.75;5043792;28;20059;-77
2023/04/14 02:13:06;;;;;;;11.05;2.50;;;;;;;4.62;70.47;101784.44;5039424;28;20061;-77
2023/04/14 02:15:34;;;;;;;13.05;1.98;;;;;;;4.62;70.59;101784.44;5046995;28;20047;-78
2023/04/14 02:18:04;;;;;;;5.63;1.50;;;;;;;4.60;70.65;101779.22;5042716;28;20041;-78
2023/04/14 02:20:36;;;;;;;15.07;2.33;;;;;;;4.60;70.53;101775.78;5048163;28;20049;-78
2023/04/14 02:23:03;;;;;;;9.30;2.05;;;;;;;4.59;70.61;101774.91;5039438;28;20904;-78
2023/04/14 02:25:33;;;;;;;19.13;3.35;;;;;;;4.58;70.63;101778.34;5037765;28;20517;-78
2023/04/14 02:28:05;;;;;;;9.65;2.25;;;;;;;4.59;70.60;101776.63;5048712;28;20045;-78
2023/04/14 02:30:35;;;;;;;12.38;2.53;;;;;;;4.59;70.56;101774.03;5046066;28;20050;-77
2023/04/14 02:33:05;;;;;;;16.50;2.28;;;;;;;4.56;70.63;101773.97;5039600;28;20102;-78
2023/04/14 02:35:39;;;;;;;10.50;2.40;;;;;;;4.56;70.56;101780.00;5046782;28;20072;-77
2023/04/14 02:38:13;;;;;;;6.38;1.80;;;;;;;4.53;70.53;101769.59;5039320;28;20055;-76
2023/04/14 02:40:42;;;;;;;9.07;2.10;;;;;;;4.55;70.69;101777.38;5040510;28;20041;-78
2023/04/14 02:43:16;;;;;;;11.45;2.22;;;;;;;4.52;71.03;101773.00;5039106;28;20288;-78
2023/04/14 02:45:47;;;;;;;13.48;2.35;;;;;;;4.52;70.68;101778.19;5044567;28;20059;-78
2023/04/14 02:48:18;;;;;;;10.93;2.22;;;;;;;4.51;71.15;101779.91;5041948;28;20045;-78
2023/04/14 02:50:50;;;;;;;9.55;2.58;;;;;;;4.50;71.01;101790.22;5040283;28;20045;-76
2023/04/14 02:53:21;;;;;;;11.75;2.55;;;;;;;4.51;70.92;101785.06;5042289;28;20056;-76
2023/04/14 02:55:51;;;;;;;10.35;2.60;;;;;;;4.51;70.84;101779.03;5044375;28;20079;-76
2023/04/14 02:58:19;;;;;;;9.60;1.80;;;;;;;4.49;70.81;101781.56;5043668;28;20048;-70
2023/04/14 03:00:47;;;;;;;11.35;2.63;;;;;;;4.51;70.98;101791.97;5042130;28;20045;-70
2023/04/14 03:03:15;;;;;;;11.00;2.25;;;;;;;4.50;70.92;101796.28;5040707;28;20098;-70
2023/04/14 03:05:44;;;;;;;13.23;1.80;;;;;;;4.47;71.03;101790.16;5040374;28;20137;-70
2023/04/14 03:08:16;;;;;;;11.68;2.13;;;;;;;4.49;70.87;101799.69;5042362;28;20049;-70
2023/04/14 03:10:46;;;;;;;10.77;1.65;;;;;;;4.50;70.81;101796.28;5047764;28;20055;-70
2023/04/14 03:13:14;;;;;;;13.60;2.72;;;;;;;4.50;70.91;101791.09;5048286;28;20048;-69
2023/04/14 03:15:41;;;;;;;7.90;1.88;;;;;;;4.50;70.90;101785.94;5038736;28;20498;-70
2023/04/14 03:18:10;;;;;;;11.68;2.05;;;;;;;4.52;70.93;101788.53;5042550;28;20814;-70
2023/04/14 03:20:38;;;;;;;11.23;1.92;;;;;;;4.46;71.03;101770.28;5045946;28;20057;-70
2023/04/14 03:23:06;;;;;;;13.25;2.78;;;;;;;4.53;71.19;101794.59;5042263;28;20127;-70
2023/04/14 03:25:37;;;;;;;19.30;2.38;;;;;;;4.52;71.29;101791.13;5037034;28;20056;-70
2023/04/14 03:28:06;;;;;;;8.25;2.08;;;;;;;4.52;71.10;101788.53;5036204;28;20065;-70
2023/04/14 03:30:36;;;;;;;7.57;2.15;;;;;;;4.50;71.30;101793.69;5035438;28;20053;-70
2023/04/14 03:33:08;;;;;;;16.85;2.17;;;;;;;4.52;70.97;101801.47;5033250;28;20055;-70
2023/04/14 03:35:36;;;;;;;11.35;2.53;;;;;;;4.53;71.14;101803.22;5041879;28;20084;-70
2023/04/14 03:38:07;;;;;;;12.63;3.08;;;;;;;4.54;71.34;101796.34;5038323;28;20049;-70
2023/04/14 03:40:40;;;;;;;8.68;2.08;;;;;;;4.56;71.06;101795.53;5036918;28;20057;-70
2023/04/14 03:43:11;;;;;;;5.50;2.03;;;;;;;4.55;71.22;101795.50;5046894;28;20049;-70
2023/04/14 03:45:39;;;;;;;12.45;2.22;;;;;;;4.58;70.99;101804.22;5046809;28;20042;-70
2023/04/14 03:48:10;;;;;;;11.80;2.53;;;;;;;4.57;71.12;101804.16;5041839;28;20102;-70
2023/04/14 03:50:40;;;;;;;9.88;2.28;;;;;;;4.59;71.17;101802.50;5037562;28;20053;-70
2023/04/14 03:53:09;;;;;;;10.68;1.83;;;;;;;4.62;71.30;101810.31;5040347;28;20044;-70
2023/04/14 03:55:38;;;;;;;8.00;1.90;;;;;;;4.62;71.26;101811.19;5044822;28;20053;-70
2023/04/14 03:58:07;;;;;;;11.52;2.10;;;;;;;4.63;71.18;101807.75;5043363;28;20095;-70
2023/04/14 04:00:36;;;;;;;10.82;3.47;;;;;;;4.63;71.14;101812.94;5034595;28;20049;-70
2023/04/14 04:03:04;;;;;;;15.27;2.42;;;;;;;4.63;71.22;101807.75;5038025;28;20497;-70
2023/04/14 04:05:32;;;;;;;9.85;2.50;;;;;;;4.65;71.17;101816.44;5043184;28;20056;-69
2023/04/14 04:08:02;;;;;;;14.35;2.92;;;;;;;4.65;71.00;101818.16;5047798;28;20049;-70
2023/04/14 04:10:32;;;;;;;14.13;2.35;;;;;;;4.65;71.10;101828.50;5033812;28;20649;-70
2023/04/14 04:13:02;;;;;;;12.60;2.58;;;;;;;4.65;71.41;101841.44;5035063;28;20045;-70
2023/04/14 04:15:31;;;;;;;11.18;2.10;;;;;;;4.62;71.26;101826.72;5039078;28;20044;-70
2023/04/14 04:17:59;;;;;;;9.55;2.63;;;;;;;4.64;71.31;101834.50;5046721;28;20052;-70
2023/04/14 04:20:27;;;;;;;11.05;1.77;;;;;;;4.62;70.91;101826.72;5040346;28;20136;-70
2023/04/14 04:22:58;;;;;;;14.93;2.47;;;;;;;4.58;71.36;101824.91;5040421;28;20053;-70
2023/04/14 04:25:25;;;;;;;12.88;2.97;;;;;;;4.61;71.38;101835.34;5039591;28;20056;-70
2023/04/14 04:27:52;;;;;;;10.10;2.63;;;;;;;4.62;71.61;101833.63;5041634;28;20041;-71
2023/04/14 04:30:24;;;;;;;13.52;2.30;;;;;;;4.61;71.69;101840.50;5043344;28;20053;-71
2023/04/14 04:32:51;;;;;;;14.00;3.10;;;;;;;4.62;71.69;101846.56;5035885;28;20053;-70
2023/04/14 04:35:18;;;;;;;14.77;3.13;;;;;;;4.62;72.10;101847.44;5034641;28;20497;-70
2023/04/14 04:37:47;;;;;;;8.90;2.25;;;;;;;4.61;71.88;101845.69;5045976;28;20047;-70
2023/04/14 04:40:14;;;;;;;18.95;2.72;;;;;;;4.60;72.05;101859.44;5042011;28;20057;-70
2023/04/14 04:42:42;;;;;;;8.57;2.40;;;;;;;4.59;71.98;101852.53;5039006;28;20056;-70
2023/04/14 04:45:10;;;;;;;8.57;2.38;;;;;;;4.59;72.09;101862.88;5041960;28;20049;-70
2023/04/14 04:47:38;;;;;;;13.43;2.63;;;;;;;4.59;72.28;101856.84;5050036;28;20052;-70
2023/04/14 04:50:06;;;;;;;21.75;2.85;;;;;;;4.59;72.13;101852.53;5050192;28;20060;-70
2023/04/14 04:52:33;;;;;;;16.65;3.40;;;;;;;4.60;72.10;101863.75;5044435;28;20080;-70
2023/04/14 04:54:59;;;;;;;9.80;2.80;;;;;;;4.57;72.51;101861.97;5037849;28;20054;-70
2023/04/14 04:57:26;;;;;;;13.85;2.83;;;;;;;4.57;72.58;101864.56;5036541;28;20049;-71
2023/04/14 04:59:53;;;;;;;14.75;2.88;;;;;;;4.58;72.34;101860.25;5044837;28;20050;-70
2023/04/14 05:02:20;;;;;;;13.02;3.58;;;;;;;4.57;72.62;101864.56;5042255;28;20049;-71
2023/04/14 05:04:49;;;;;;;15.45;4.55;;;;;;;4.58;72.86;101875.78;5045412;28;20134;-70
2023/04/14 05:07:16;;;;;;;15.65;3.22;;;;;;;4.58;72.75;101874.09;5050349;28;20045;-71
2023/04/14 05:09:43;;;;;;;11.52;3.42;;;;;;;4.56;72.72;101873.16;5045132;28;20052;-70
2023/04/14 05:12:10;;;;;;;11.95;3.33;;;;;;;4.55;72.81;101866.22;5043966;28;20056;-70
2023/04/14 05:14:37;;;;;;;19.45;3.20;;;;;;;4.57;72.78;101872.31;5044120;28;20054;-71
2023/04/14 05:17:04;;;;;;;12.35;1.95;;;;;;;4.58;72.68;101879.25;5043158;28;20045;-70
2023/04/14 05:19:31;;;;;;;10.00;3.08;;;;;;;4.58;72.79;101874.09;5048778;28;20051;-71
2023/04/14 05:22:00;;;;;;;17.45;4.30;;;;;;;4.57;72.80;101876.63;5038234;28;20391;-71
2023/04/14 05:24:26;;;;;;;10.23;2.10;;;;;;;4.56;72.42;101875.75;5035928;28;20045;-71
2023/04/14 05:26:53;;;;;;;10.73;2.55;;;;;;;4.55;72.66;101868.81;5039418;28;20049;-70
2023/04/14 05:29:20;;;;;;;16.83;3.08;;;;;;;4.55;72.96;101867.94;5048146;28;20390;-70
2023/04/14 05:31:47;;;;;;;8.45;3.00;;;;;;;4.55;72.58;101870.53;5029634;28;20049;-71
2023/04/14 05:34:15;;;;;;;9.10;2.63;;;;;;;4.56;72.72;101875.75;5043123;28;20053;-70
2023/04/14 05:36:42;;;;;;;9.65;2.40;;;;;;;4.55;72.63;101871.41;5045340;28;20071;-70
2023/04/14 05:39:10;;;;;;;8.02;1.80;;;;;;;4.55;72.74;101881.75;5040328;28;20079;-70
2023/04/14 05:41:37;;;;;;;8.82;2.38;;;;;;;4.53;72.65;101875.69;5037394;28;20053;-71
2023/04/14 05:44:04;;;;;;;13.63;2.53;;;;;;;4.55;72.74;101880.88;5038029;28;20505;-70
2023/04/14 05:46:31;;;;;;;6.40;1.85;;;;;;;4.55;72.71;101876.56;5040732;28;20497;-70
2023/04/14 05:48:59;;;;;;;12.32;2.92;;;;;;;4.56;72.77;101886.09;5044666;28;20056;-70
2023/04/14 05:51:26;;;;;;;8.25;3.15;;;;;;;4.56;72.47;101882.66;5044143;28;20106;-70
2023/04/14 05:53:53;;;;;;;12.20;2.92;;;;;;;4.54;72.61;101872.25;5050109;28;20045;-71
2023/04/14 05:56:22;;;;;;;13.43;2.97;;;;;;;4.58;72.79;101883.53;5044153;28;20505;-70
2023/04/14 05:58:53;;;;;;;9.60;3.00;;;;;;;4.54;72.83;101874.84;5045916;28;20045;-71
2023/04/14 06:01:19;;;;;;;5.35;2.03;;;;;;;4.58;72.55;101891.31;5044204;28;20457;-70
2023/04/14 06:03:46;;;;;;;15.95;2.00;;;;;;;4.57;72.88;101893.00;5041510;28;20046;-70
2023/04/14 06:06:13;;;;;;;7.47;2.10;;;;;;;4.56;72.66;101899.03;5037719;28;20045;-71
2023/04/14 06:08:40;;;;;;;13.35;2.58;;;;;;;4.55;72.74;101894.69;5039723;28;20054;-70
2023/04/14 06:11:07;;;;;;;11.23;2.47;;;;;;;4.53;72.63;101895.50;5038263;28;20410;-70
2023/04/14 06:13:35;;;;;;;13.95;2.03;;;;;;;4.54;72.62;101903.28;5041981;28;20060;-71
2023/04/14 06:16:02;;;;;;;11.20;2.20;;;;;;;4.55;72.68;101907.63;5042895;28;20059;-70
2023/04/14 06:18:29;;;;;;;15.68;2.30;;;;;;;4.54;72.60;101905.88;5034494;28;20049;-71
2023/04/14 06:20:56;;;;;;;10.43;2.53;;;;;;;4.55;72.88;101917.09;5040344;28;20044;-70
2023/04/14 06:23:25;;;;;;;11.07;3.05;;;;;;;4.55;72.83;101919.69;5036513;28;20046;-71
2023/04/14 06:25:52;;;;;;;11.32;3.67;;;;;;;4.55;72.54;101917.97;5033926;28;20053;-70
2023/04/14 06:28:22;;;;;;;10.23;2.28;;;;;;;4.55;72.60;101919.69;5038240;28;20041;-70
2023/04/14 06:30:51;;;;;;;12.52;1.83;;;;;;;4.56;72.69;101919.75;5039730;28;20057;-71
2023/04/14 06:33:18;;;;;;;11.98;2.58;;;;;;;4.53;72.65;101908.44;5042809;28;20059;-70
2023/04/14 06:35:45;;;;;;;9.40;2.35;;;;;;;4.55;72.56;101920.56;5039939;28;20552;-70
2023/04/14 06:38:12;;;;;;;13.35;2.28;;;;;;;4.55;72.50;101911.94;5041260;28;20053;-70
2023/04/14 06:40:39;;;;;;;10.68;2.40;;;;;;;4.56;72.38;101924.06;5046099;28;20060;-70
2023/04/14 06:43:06;;;;;;;11.63;2.00;;;;;;;4.58;72.58;101925.84;5045881;28;20053;-70
2023/04/14 06:45:33;;;;;;;8.80;2.00;;;;;;;4.57;72.72;101929.25;5040327;28;20053;-70
2023/04/14 06:48:01;;;;;;;12.30;1.67;;;;;;;4.58;72.31;101931.03;5043308;28;20049;-70
2023/04/14 06:50:28;;;;;;;6.60;1.98;;;;;;;4.59;72.29;101929.31;5037928;28;20056;-71
2023/04/14 06:52:55;;;;;;;10.45;1.88;;;;;;;4.59;72.29;101918.94;5043673;28;20055;-71
2023/04/14 06:55:22;;;;;;;10.32;1.50;;;;;;;4.58;72.31;101923.25;5039736;28;20049;-71
2023/04/14 06:57:49;;;;;;;16.67;2.58;;;;;;;4.60;72.10;101926.72;5043814;28;20049;-70
2023/04/14 07:00:17;;;;;;;9.45;1.52;;;;;;;4.61;72.18;101933.69;5041146;28;20049;-71
2023/04/14 07:02:44;;;;;;;8.13;1.25;;;;;;;4.62;72.10;101925.06;5039487;28;20604;-70
2023/04/14 07:05:16;;;;;;;8.88;1.92;;;;;;;4.62;72.02;101927.66;5034005;28;20417;-71
2023/04/14 07:07:43;;;;;;;11.10;2.28;;;;;;;4.63;72.36;101934.56;5042985;28;20153;-70
2023/04/14 07:10:11;;;;;;;11.50;2.03;;;;;;;4.63;71.88;101938.88;5041247;28;20497;-70
2023/04/14 07:12:38;;;;;;;7.60;2.00;;;;;;;4.64;72.48;101944.09;5042503;28;20593;-70
2023/04/14 07:15:06;;;;;;;9.15;1.98;;;;;;;4.65;72.02;101940.66;5038831;28;20046;-71
2023/04/14 07:17:35;;;;;;;10.85;2.42;;;;;;;4.66;72.03;101936.34;5032678;28;20049;-70
2023/04/14 07:20:03;;;;;;;10.32;1.50;;;;;;;4.67;71.91;101949.34;5036025;28;20111;-70
2023/04/14 07:22:34;;;;;;;10.00;1.85;;;;;;;4.66;71.72;101938.94;5043998;28;20045;-70
2023/04/14 07:25:01;;;;;;;13.93;2.33;;;;;;;4.65;71.76;101937.22;5040799;28;20049;-70
2023/04/14 07:27:28;;;;;;;7.50;1.92;;;;;;;4.67;71.88;101943.31;5042151;28;20064;-70
2023/04/14 07:29:55;;;;;;;7.75;1.92;;;;;;;4.67;71.82;101943.31;5038191;28;20057;-70
2023/04/14 07:32:22;;;;;;;10.82;1.67;;;;;;;4.66;72.14;101937.22;5035713;28;20049;-70
2023/04/14 07:34:50;;;;;;;7.85;1.70;;;;;;;4.67;71.98;101944.19;5033473;28;20048;-70
2023/04/14 07:37:17;;;;;;;8.98;1.85;;;;;;;4.67;72.11;101951.06;5042549;28;20187;-71
2023/04/14 07:39:45;;;;;;;10.93;1.95;;;;;;;4.69;71.80;101946.78;5042588;28;20056;-71
2023/04/14 07:42:12;;;;;;;7.07;0.90;;;;;;;4.69;71.63;101951.97;5041092;28;20048;-71
2023/04/14 07:44:39;;;;;;;9.02;1.85;;;;;;;4.62;71.74;101938.00;5036294;28;20049;-70
2023/04/14 07:47:06;;;;;;;8.93;1.73;;;;;;;4.71;71.77;101951.16;5047348;28;20051;-70
2023/04/14 07:49:33;;;;;;;9.73;1.80;;;;;;;4.72;71.62;101952.94;5041988;28;20722;-70
2023/04/14 07:52:00;;;;;;;10.75;1.85;;;;;;;4.74;71.48;101946.06;5033931;28;20060;-70
2023/04/14 07:54:27;;;;;;;17.77;1.88;;;;;;;4.76;71.88;101950.41;5040431;28;20041;-70
2023/04/14 07:56:56;;;;;;;10.43;1.85;;;;;;;4.76;71.94;101953.00;5039073;28;20050;-70
2023/04/14 07:59:23;;;;;;;10.95;2.00;;;;;;;4.77;71.65;101958.19;5042626;28;20061;-70
2023/04/14 08:01:50;;;;;;;7.00;0.98;;;;;;;4.76;71.67;101955.59;5038222;28;20067;-70
2023/04/14 08:04:17;;;;;;;13.45;3.53;;;;;;;4.80;71.85;101954.81;5040326;28;20091;-71
2023/04/14 08:06:44;;;;;;;10.07;2.17;;;;;;;4.83;71.73;101962.66;5040654;28;20504;-70
2023/04/14 08:09:11;;;;;;;8.15;1.27;;;;;;;4.84;71.50;101956.63;5042893;28;20045;-71
2023/04/14 08:11:38;;;;;;;6.20;1.85;;;;;;;4.85;71.62;101963.56;5040299;28;20052;-71
2023/04/14 08:14:06;;;;;;;6.43;1.65;;;;;;;4.86;71.52;101954.97;5043900;28;20046;-70
2023/04/14 08:16:35;;;;;;;7.97;1.60;;;;;;;4.87;71.26;101962.78;5044579;28;20060;-71
2023/04/14 08:19:02;;;;;;;8.27;2.10;;;;;;;4.87;71.28;101959.31;5041471;28;20081;-71
2023/04/14 08:21:29;;;;;;;14.65;1.63;;;;;;;4.89;71.28;101965.38;5037563;28;20068;-70
2023/04/14 08:23:57;;;;;;;6.32;1.20;;;;;;;4.93;71.25;101962.03;5039456;28;20076;-71
2023/04/14 08:26:26;;;;;;;6.25;1.30;;;;;;;4.93;71.10;101965.50;5040019;28;20486;-70
2023/04/14 08:28:53;;;;;;;12.82;1.50;;;;;;;4.96;71.16;101964.72;5044047;28;20788;-71
2023/04/14 08:31:24;;;;;;;6.35;1.80;;;;;;;4.97;71.07;101961.28;5041961;28;20136;-71
2023/04/14 08:33:51;;;;;;;9.57;2.45;;;;;;;4.96;70.97;101963.00;5050328;28;20060;-70
2023/04/14 08:36:18;;;;;;;9.07;1.88;;;;;;;4.97;71.16;101958.69;5049277;28;20128;-71
2023/04/14 08:38:46;;;;;;;5.22;1.42;;;;;;;5.00;71.19;101968.25;5043688;28;20052;-70
2023/04/14 08:41:15;;;;;;;11.35;1.92;;;;;;;5.01;71.36;101968.28;5039341;28;20084;-70
2023/04/14 08:43:42;;;;;;;14.85;2.17;;;;;;;5.02;71.13;101967.44;5045796;28;20061;-70
2023/04/14 08:46:11;;;;;;;5.57;1.90;;;;;;;5.02;70.84;101959.66;5041528;28;20077;-70
2023/04/14 08:48:40;;;;;;;9.25;1.98;;;;;;;5.03;70.98;101960.53;5042113;28;20497;-70
2023/04/14 08:51:13;;;;;;;9.85;1.30;;;;;;;5.06;70.97;101964.06;5046882;28;20055;-71
2023/04/14 08:53:44;;;;;;;13.18;1.92;;;;;;;5.08;70.81;101967.56;5038163;28;20060;-70
2023/04/14 08:56:13;;;;;;;9.15;1.63;;;;;;;5.08;70.94;101975.34;5041738;28;20128;-70
2023/04/14 08:58:41;;;;;;;6.95;1.88;;;;;;;5.11;70.96;101972.81;5039858;28;20460;-70
2023/04/14 09:01:08;;;;;;;8.55;1.27;;;;;;;5.12;70.95;101974.59;5045438;28;20049;-70
2023/04/14 09:03:37;;;;;;;8.02;2.28;;;;;;;5.13;71.11;101970.28;5043443;28;20052;-71
2023/04/14 09:06:06;;;;;;;9.80;1.95;;;;;;;5.16;71.07;101976.41;5046140;28;20053;-70
2023/04/14 09:08:33;;;;;;;13.50;2.17;;;;;;;5.16;71.12;101967.75;5048884;28;20160;-70
2023/04/14 09:11:01;;;;;;;12.00;2.08;;;;;;;5.19;71.23;101975.59;5050084;28;20103;-70
2023/04/14 09:13:29;;;;;;;7.18;1.55;;;;;;;5.19;71.35;101973.88;5042309;28;20057;-71
2023/04/14 09:15:56;;;;;;;4.82;1.42;;;;;;;5.22;70.68;101973.06;5039987;28;20049;-71
2023/04/14 09:18:25;;;;;;;14.15;1.50;;;;;;;5.21;70.74;101967.84;5044536;28;20052;-70
2023/04/14 09:20:52;;;;;;;9.85;2.15;;;;;;;5.25;70.56;101985.22;5044481;28;20498;-70
2023/04/14 09:23:21;;;;;;;12.02;2.05;;;;;;;5.25;70.27;101969.69;5047521;28;20052;-70
2023/04/14 09:25:48;;;;;;;11.02;2.28;;;;;;;5.26;70.47;101976.59;5039432;28;20494;-70
2023/04/14 09:28:15;;;;;;;11.18;2.03;;;;;;;5.29;70.28;101981.84;5040488;28;20053;-70
2023/04/14 09:30:43;;;;;;;11.75;1.98;;;;;;;5.28;70.13;101982.69;5044697;28;20507;-70
2023/04/14 09:33:19;;;;;;;8.98;1.77;;;;;;;5.31;69.52;101990.53;5040930;28;20116;-71
2023/04/14 09:35:47;;;;;;;7.75;2.50;;;;;;;5.33;70.09;101994.06;5032037;28;20391;-70
2023/04/14 09:38:15;;;;;;;7.03;1.45;;;;;;;5.33;69.76;101991.47;5041849;28;20056;-70
2023/04/14 09:40:44;;;;;;;10.40;1.38;;;;;;;5.33;69.66;101992.34;5037759;28;20054;-70
2023/04/14 09:43:24;;;;;;;6.43;1.50;;;;;;;5.34;69.75;102000.97;5043915;28;20551;-70
2023/04/14 09:45:51;;;;;;;14.25;2.50;;;;;;;5.32;69.66;102002.66;5049697;28;20056;-70
2023/04/14 09:48:18;;;;;;;8.45;1.75;;;;;;;5.31;69.20;102001.78;5043425;28;20049;-70
2023/04/14 09:50:57;;;;;;;9.85;1.88;;;;;;;5.32;68.94;102008.72;5043919;28;20046;-70
2023/04/14 09:53:28;;;;;;;9.50;2.17;;;;;;;5.30;68.82;102009.53;5043091;28;20403;-71
2023/04/14 09:55:58;;;;;;;9.80;2.05;;;;;;;5.26;69.16;102005.97;5036896;28;20049;-70
2023/04/14 09:58:29;;;;;;;7.18;1.50;;;;;;;5.29;69.19;102012.94;5039622;28;20138;-70
2023/04/14 10:00:56;;;;;;;8.32;1.70;;;;;;;5.27;69.13;102015.50;5045000;28;20505;-71
2023/04/14 10:03:38;;;;;;;9.38;1.50;;;;;;;5.29;69.50;102005.16;5050126;28;20049;-70
2023/04/14 10:06:09;;;;;;;5.70;1.27;;;;;;;5.29;69.22;102011.22;5034992;28;20049;-70
2023/04/14 10:08:38;;;;;;;7.05;1.30;;;;;;;5.31;69.35;102016.44;5044333;28;20570;-71
2023/04/14 10:11:18;;;;;;;5.82;1.55;;;;;;;5.32;69.28;102013.00;5037170;28;20076;-70
2023/04/14 10:13:46;;;;;;;5.63;1.00;;;;;;;5.31;69.23;102013.84;5038212;28;20056;-71
2023/04/14 10:16:13;;;;;;;8.50;1.52;;;;;;;5.34;69.25;102013.94;5042946;28;20045;-70
2023/04/14 10:18:40;;;;;;;5.70;1.45;;;;;;;5.34;68.86;102022.56;5044028;28;20505;-71
2023/04/14 10:21:08;;;;;;;12.20;1.60;;;;;;;5.33;69.11;102027.72;5045923;28;20045;-70
2023/04/14 10:23:37;;;;;;;6.90;1.90;;;;;;;5.35;69.26;102031.22;5039630;28;20886;-71
2023/04/14 10:26:05;;;;;;;6.30;1.50;;;;;;;5.33;68.99;102036.38;5041649;28;20049;-71
2023/04/14 10:28:34;;;;;;;7.45;1.48;;;;;;;5.35;69.22;102038.97;5043619;28;20244;-71
2023/04/14 10:31:05;;;;;;;4.43;1.63;;;;;;;5.35;68.91;102041.56;5042358;28;20045;-70
2023/04/14 10:33:32;;;;;;;5.78;2.10;;;;;;;5.35;69.13;102050.25;5039703;28;20514;-70
2023/04/14 10:36:00;;;;;;;6.60;1.83;;;;;;;5.36;69.13;102051.13;5035533;28;20052;-70
2023/04/14 10:38:45;;;;;;;9.20;2.15;;;;;;;5.36;69.22;102053.72;5036294;28;20049;-70
2023/04/14 10:41:13;;;;;;;12.43;2.22;;;;;;;5.35;69.32;102055.44;5040643;28;20053;-71
2023/04/14 10:43:41;;;;;;;5.95;1.10;;;;;;;5.36;69.21;102051.13;5046920;28;20045;-71
2023/04/14 10:46:09;;;;;;;10.73;1.67;;;;;;;5.37;68.89;102058.03;5044427;28;20060;-70
2023/04/14 10:48:40;;;;;;;8.38;1.70;;;;;;;5.31;69.11;102048.41;5042734;28;20045;-70
2023/04/14 10:51:08;;;;;;;7.00;1.40;;;;;;;5.36;69.12;102057.19;5047168;28;20061;-70
2023/04/14 10:53:39;;;;;;;5.35;1.20;;;;;;;5.34;69.04;102055.38;5039750;28;20064;-71
2023/04/14 10:56:06;;;;;;;5.00;1.38;;;;;;;5.37;69.10;102060.63;5041615;28;20056;-70
2023/04/14 10:58:36;;;;;;;7.07;1.50;;;;;;;5.36;69.01;102056.31;5039993;28;20055;-70
2023/04/14 11:01:24;;;;;;;8.15;1.48;;;;;;;5.37;68.66;102058.03;5036902;28;20394;-71
2023/04/14 11:03:52;;;;;;;7.03;1.17;;;;;;;5.33;68.55;102057.09;5043922;28;20819;-70
2023/04/14 11:06:53;;;;;;;6.05;1.13;;;;;;;5.35;68.92;102059.72;5045772;28;20049;-71
2023/04/14 11:09:25;;;;;;;7.07;1.55;;;;;;;5.32;69.10;102063.13;5033066;28;20052;-70
2023/04/14 11:11:53;;;;;;;13.65;2.00;;;;;;;5.29;68.91;102057.84;5035774;28;20057;-70
2023/04/14 11:14:26;;;;;;;6.75;1.63;;;;;;;5.31;68.95;102057.91;5041388;28;20053;-70
2023/04/14 11:17:00;;;;;;;8.15;1.80;;;;;;;5.30;68.67;102061.34;5037227;28;20060;-70
2023/04/14 11:19:27;;;;;;;6.90;1.65;;;;;;;5.30;68.52;102071.72;5034899;28;20529;-70
2023/04/14 11:21:55;;;;;;;10.75;1.48;;;;;;;5.26;68.57;102064.69;5035302;28;20139;-71
2023/04/14 11:24:22;;;;;;;5.35;1.23;;;;;;;5.28;68.52;102066.47;5042889;28;20045;-70
2023/04/14 11:26:52;;;;;;;6.03;1.65;;;;;;;5.28;68.89;102063.00;5044513;28;20126;-70
2023/04/14 11:29:19;;;;;;;4.60;0.93;;;;;;;5.27;68.43;102062.16;5041337;28;20490;-70
2023/04/14 11:31:47;;;;;;;8.52;1.75;;;;;;;5.26;68.58;102067.28;5041067;28;20045;-71
2023/04/14 11:34:15;;;;;;;7.65;1.48;;;;;;;5.25;68.44;102062.94;5043219;28;20057;-71
2023/04/14 11:36:43;;;;;;;8.85;1.50;;;;;;;5.23;68.20;102064.63;5045217;28;20049;-70